Circle, Montana
Current Conditions -  °F | °C
As of 2:35 AM on Wednesday 22 Oct 2014 (Local Time) from KGDV Reporting Station
Few Clouds Few Clouds  
Wind Chill: 52°   Ceiling: Unl
Heat Index: 52°   Visibility: 10mi
Dew Point: 46°   Wind: 17mph
Humidity: 82%   Direction: 270°W
Pressure: 29.81"   Gusts: 21mph
Location:  47.42°N, 105.59°W
Report Text: KGDV 220835Z AUTO 27015G18KT 10SM FEW085 11/08 A2981 RMK AO1
Loading
Personal Weather Stations






























Interactive Weather Map
Tropical Storm Tracking
New forecast layout! Learn more

10-Day Weather Forecast

Advertisements
Track Severe Weather on mobile